Time;durP1;ratioP1;P1;durP2;ratioP2;P2;SDS_P1;SDS_P2;PMS_P1;PMS_P2;Temp;Humidity;BMP_temperature;BMP_pressure;BME280_temperature;BME280_humidity;BME280_pressure;Samples;Min_cycle;Max_cycle;Signal;HPM_P1;HPM_P2
2023/07/27 00:01:12;;;;;;;6.22;2.22;;;;;;;;;;5058258;28;20697;-78
2023/07/27 00:03:38;;;;;;;5.05;2.45;;;;;;;;;;5061770;28;20047;-76
2023/07/27 00:06:07;;;;;;;4.82;2.45;;;;;;;;;;5064381;28;20036;-79
2023/07/27 00:08:33;;;;;;;3.00;1.90;;;;;;;;;;5064239;28;20032;-79
2023/07/27 00:10:59;;;;;;;6.13;2.83;;;;;;;;;;5063027;28;20040;-78
2023/07/27 00:13:27;;;;;;;6.15;2.53;;;;;;;;;;5065911;28;20029;-81
2023/07/27 00:15:53;;;;;;;3.67;2.10;;;;;;;;;;5065307;28;20036;-77
2023/07/27 00:18:19;;;;;;;3.15;2.20;;;;;;;;;;5063695;28;21656;-80
2023/07/27 00:20:45;;;;;;;5.68;2.10;;;;;;;;;;5057776;28;20082;-76
2023/07/27 00:23:11;;;;;;;4.82;2.35;;;;;;;;;;5082403;28;20036;-79
2023/07/27 00:25:37;;;;;;;2.75;1.73;;;;;;;;;;5065177;28;20535;-79
2023/07/27 00:28:03;;;;;;;6.68;2.42;;;;;;;;;;5064277;28;20029;-79
2023/07/27 00:30:31;;;;;;;5.38;2.80;;;;;;;;;;5064888;28;20127;-78
2023/07/27 00:32:58;;;;;;;6.22;2.47;;;;;;;;;;5063757;28;20028;-78
2023/07/27 00:35:24;;;;;;;4.43;1.90;;;;;;;;;;5066559;28;20056;-78
2023/07/27 00:37:52;;;;;;;3.78;2.03;;;;;;;;;;5065221;28;20044;-79
2023/07/27 00:40:19;;;;;;;4.28;2.22;;;;;;;;;;5072883;28;20044;-77
2023/07/27 00:42:47;;;;;;;5.10;1.92;;;;;;;;;;5067397;28;20036;-79
2023/07/27 00:45:15;;;;;;;3.33;2.38;;;;;;;;;;5065463;28;20032;-79
2023/07/27 00:47:41;;;;;;;5.30;2.50;;;;;;;;;;5068354;28;20057;-78
2023/07/27 00:50:07;;;;;;;6.63;2.08;;;;;;;;;;5086000;28;20341;-77
2023/07/27 00:52:33;;;;;;;3.78;2.15;;;;;;;;;;5068804;28;20028;-79
2023/07/27 00:54:59;;;;;;;5.25;2.30;;;;;;;;;;5068589;28;20040;-78
2023/07/27 00:57:25;;;;;;;3.70;2.17;;;;;;;;;;5066278;28;20037;-79
2023/07/27 00:59:54;;;;;;;5.68;2.58;;;;;;;;;;5081227;28;20078;-79
2023/07/27 01:02:20;;;;;;;5.78;2.08;;;;;;;;;;5065152;28;20032;-80
2023/07/27 01:04:48;;;;;;;4.60;1.98;;;;;;;;;;5068537;28;20042;-78
2023/07/27 01:07:14;;;;;;;4.88;2.65;;;;;;;;;;5067097;28;20036;-79
2023/07/27 01:09:42;;;;;;;6.50;2.85;;;;;;;;;;5070971;28;20459;-78
2023/07/27 01:12:19;;;;;;;3.80;2.22;;;;;;;;;;5066342;28;20453;-79
2023/07/27 01:14:57;;;;;;;3.30;2.10;;;;;;;;;;5062360;28;20039;-78
2023/07/27 01:17:31;;;;;;;3.95;2.35;;;;;;;;;;5065754;28;20039;-78
2023/07/27 01:20:04;;;;;;;6.78;2.63;;;;;;;;;;5079226;28;20028;-74
2023/07/27 01:22:33;;;;;;;5.45;2.50;;;;;;;;;;5072801;28;20032;-79
2023/07/27 01:25:14;;;;;;;3.47;2.35;;;;;;;;;;5093500;28;20567;-77
2023/07/27 01:27:57;;;;;;;4.70;1.88;;;;;;;;;;5076821;28;20048;-77
2023/07/27 01:30:29;;;;;;;6.82;2.90;;;;;;;;;;5098697;28;20687;-79
2023/07/27 01:32:58;;;;;;;3.58;2.00;;;;;;;;;;5071817;28;20035;-79
2023/07/27 01:35:28;;;;;;;6.60;2.42;;;;;;;;;;5075104;28;20090;-75
2023/07/27 01:37:55;;;;;;;4.55;2.10;;;;;;;;;;5068860;28;20444;-77
2023/07/27 01:40:22;;;;;;;5.00;2.85;;;;;;;;;;5072539;28;20479;-75
2023/07/27 01:42:48;;;;;;;4.00;2.45;;;;;;;;;;5067610;28;20046;-77
2023/07/27 01:45:15;;;;;;;5.68;2.38;;;;;;;;;;5078444;28;20047;-76
2023/07/27 01:47:41;;;;;;;2.85;1.77;;;;;;;;;;5071529;28;20098;-78
2023/07/27 01:50:08;;;;;;;4.53;2.40;;;;;;;;;;5067760;28;20111;-79
2023/07/27 01:52:37;;;;;;;4.78;2.25;;;;;;;;;;5067867;28;20101;-79
2023/07/27 01:55:03;;;;;;;6.68;2.50;;;;;;;;;;5071280;28;20456;-77
2023/07/27 01:57:30;;;;;;;3.83;2.13;;;;;;;;;;5061753;28;20039;-78
2023/07/27 01:59:56;;;;;;;7.25;2.10;;;;;;;;;;5068175;28;20047;-79
2023/07/27 02:02:22;;;;;;;3.55;2.10;;;;;;;;;;5063349;28;20039;-78
2023/07/27 02:04:49;;;;;;;5.15;2.20;;;;;;;;;;5067459;28;20060;-78
2023/07/27 02:07:17;;;;;;;3.90;2.25;;;;;;;;;;5067441;28;20114;-79
2023/07/27 02:09:43;;;;;;;4.68;2.58;;;;;;;;;;5065099;28;20032;-77
2023/07/27 02:12:14;;;;;;;3.45;1.63;;;;;;;;;;5072168;28;20037;-79
2023/07/27 02:14:44;;;;;;;4.70;2.15;;;;;;;;;;5076854;28;20625;-73
2023/07/27 02:17:15;;;;;;;5.25;2.60;;;;;;;;;;5071985;28;20131;-77
2023/07/27 02:19:42;;;;;;;3.45;1.98;;;;;;;;;;5076358;28;20043;-74
2023/07/27 02:22:09;;;;;;;4.28;2.35;;;;;;;;;;5072805;28;20448;-76
2023/07/27 02:24:38;;;;;;;3.25;2.10;;;;;;;;;;5087818;28;20100;-74
2023/07/27 02:27:04;;;;;;;5.22;2.15;;;;;;;;;;5088887;28;20059;-75
2023/07/27 02:29:30;;;;;;;4.90;2.60;;;;;;;;;;5091971;28;20066;-73
2023/07/27 02:31:56;;;;;;;8.15;2.47;;;;;;;;;;5082560;28;20032;-74
2023/07/27 02:34:24;;;;;;;4.65;2.60;;;;;;;;;;5087336;28;20039;-75
2023/07/27 02:36:50;;;;;;;5.03;2.65;;;;;;;;;;5084030;28;20044;-77
2023/07/27 02:39:16;;;;;;;3.55;2.28;;;;;;;;;;5086409;28;20392;-74
2023/07/27 02:41:42;;;;;;;4.60;2.63;;;;;;;;;;5078713;28;20025;-74
2023/07/27 02:44:11;;;;;;;4.35;2.50;;;;;;;;;;5089326;28;20029;-74
2023/07/27 02:46:39;;;;;;;6.30;2.85;;;;;;;;;;5089997;28;20040;-74
2023/07/27 02:49:05;;;;;;;8.57;3.38;;;;;;;;;;5090626;28;20051;-76
2023/07/27 02:51:31;;;;;;;6.75;3.72;;;;;;;;;;5089448;28;20028;-74
2023/07/27 02:53:57;;;;;;;16.55;4.22;;;;;;;;;;5088307;28;20092;-75
2023/07/27 02:56:24;;;;;;;9.23;4.18;;;;;;;;;;5086578;28;20029;-73
2023/07/27 02:58:50;;;;;;;10.93;5.15;;;;;;;;;;5086894;28;20025;-75
2023/07/27 03:01:18;;;;;;;9.60;4.55;;;;;;;;;;5087262;28;20051;-75
2023/07/27 03:03:44;;;;;;;9.43;4.82;;;;;;;;;;5084729;28;20071;-75
2023/07/27 03:06:10;;;;;;;9.65;5.22;;;;;;;;;;5079709;28;20024;-76
2023/07/27 03:08:37;;;;;;;10.48;4.95;;;;;;;;;;5077737;28;20060;-76
2023/07/27 03:11:03;;;;;;;7.97;5.70;;;;;;;;;;5084662;28;20025;-77
2023/07/27 03:13:30;;;;;;;9.48;6.47;;;;;;;;;;5078805;28;20168;-75
2023/07/27 03:15:59;;;;;;;10.73;7.00;;;;;;;;;;5087824;28;20032;-74
2023/07/27 03:18:25;;;;;;;12.60;6.95;;;;;;;;;;5089642;28;20029;-76
2023/07/27 03:20:51;;;;;;;12.73;6.43;;;;;;;;;;5082415;28;20024;-77
2023/07/27 03:23:17;;;;;;;13.43;7.32;;;;;;;;;;5086574;28;20054;-78
2023/07/27 03:25:43;;;;;;;15.40;8.27;;;;;;;;;;5088275;28;20032;-74
2023/07/27 03:28:09;;;;;;;16.48;8.10;;;;;;;;;;5103857;28;20044;-76
2023/07/27 03:30:36;;;;;;;14.43;7.13;;;;;;;;;;5087546;28;20032;-75
2023/07/27 03:33:05;;;;;;;12.30;7.40;;;;;;;;;;5086127;28;20055;-78
2023/07/27 03:35:32;;;;;;;9.18;6.47;;;;;;;;;;5086554;28;20025;-76
2023/07/27 03:37:58;;;;;;;12.25;7.80;;;;;;;;;;5081043;28;20033;-76
2023/07/27 03:40:24;;;;;;;14.80;7.63;;;;;;;;;;5087773;28;20511;-77
2023/07/27 03:42:52;;;;;;;9.95;7.15;;;;;;;;;;5082082;28;20024;-75
2023/07/27 03:45:18;;;;;;;16.63;7.47;;;;;;;;;;5090625;28;20024;-74
2023/07/27 03:47:45;;;;;;;10.88;6.95;;;;;;;;;;5091921;28;20027;-74
2023/07/27 03:50:12;;;;;;;16.83;7.65;;;;;;;;;;5092132;28;20051;-73
2023/07/27 03:52:38;;;;;;;14.05;7.40;;;;;;;;;;5092800;28;20146;-73
2023/07/27 03:55:04;;;;;;;17.70;7.95;;;;;;;;;;5091567;28;20101;-74
2023/07/27 03:57:30;;;;;;;15.90;8.00;;;;;;;;;;5092979;28;20021;-74
2023/07/27 03:59:59;;;;;;;11.45;8.32;;;;;;;;;;5093036;28;20063;-76
2023/07/27 04:02:25;;;;;;;13.40;7.57;;;;;;;;;;5088275;28;20021;-73
2023/07/27 04:04:51;;;;;;;11.85;7.68;;;;;;;;;;5090966;28;20041;-73
2023/07/27 04:07:21;;;;;;;14.45;8.15;;;;;;;;;;5091694;28;20406;-73
2023/07/27 04:09:47;;;;;;;12.13;7.72;;;;;;;;;;5088224;28;20025;-75
2023/07/27 04:12:13;;;;;;;15.55;8.35;;;;;;;;;;5093557;28;20047;-73
2023/07/27 04:14:42;;;;;;;12.15;7.90;;;;;;;;;;5091841;28;20013;-73
2023/07/27 04:17:09;;;;;;;19.33;8.65;;;;;;;;;;5091196;28;20114;-73
2023/07/27 04:19:35;;;;;;;12.85;7.40;;;;;;;;;;5091969;28;20027;-73
2023/07/27 04:22:01;;;;;;;16.00;9.45;;;;;;;;;;5092812;28;20043;-73
2023/07/27 04:24:27;;;;;;;15.02;8.32;;;;;;;;;;5086404;28;20021;-73
2023/07/27 04:26:56;;;;;;;14.73;7.95;;;;;;;;;;5087381;28;20043;-73
2023/07/27 04:29:24;;;;;;;18.48;8.98;;;;;;;;;;5090177;28;20037;-73
2023/07/27 04:31:53;;;;;;;19.38;9.25;;;;;;;;;;5091893;28;20025;-73
2023/07/27 04:34:19;;;;;;;14.48;7.78;;;;;;;;;;5092168;28;20029;-73
2023/07/27 04:36:48;;;;;;;15.40;8.13;;;;;;;;;;5091329;28;20270;-73
2023/07/27 04:39:15;;;;;;;16.75;8.73;;;;;;;;;;5091442;28;20008;-73
2023/07/27 04:41:43;;;;;;;19.80;8.75;;;;;;;;;;5083724;28;20031;-73
2023/07/27 04:44:09;;;;;;;21.38;9.75;;;;;;;;;;5090708;28;20036;-73
2023/07/27 04:46:35;;;;;;;16.13;8.82;;;;;;;;;;5087324;28;20020;-73
2023/07/27 04:49:01;;;;;;;19.13;9.55;;;;;;;;;;5091313;28;20052;-72
2023/07/27 04:51:27;;;;;;;15.95;9.73;;;;;;;;;;5091261;28;20032;-73
2023/07/27 04:53:56;;;;;;;20.30;10.65;;;;;;;;;;5092697;28;20032;-72
2023/07/27 04:56:24;;;;;;;24.77;10.43;;;;;;;;;;5091333;28;20107;-73
2023/07/27 04:58:53;;;;;;;17.63;10.50;;;;;;;;;;5090863;28;20041;-73
2023/07/27 05:01:19;;;;;;;22.77;11.50;;;;;;;;;;5090814;28;20323;-73
2023/07/27 05:03:45;;;;;;;21.83;11.93;;;;;;;;;;5092206;28;20012;-72
2023/07/27 05:06:11;;;;;;;29.40;11.98;;;;;;;;;;5106961;28;20036;-73
2023/07/27 05:08:39;;;;;;;38.63;13.15;;;;;;;;;;5089112;28;20104;-72
2023/07/27 05:11:07;;;;;;;40.40;13.25;;;;;;;;;;5089511;28;20021;-73
2023/07/27 05:13:36;;;;;;;26.88;12.85;;;;;;;;;;5088608;28;20017;-73
2023/07/27 05:16:05;;;;;;;27.15;13.77;;;;;;;;;;5091128;28;20491;-73
2023/07/27 05:18:31;;;;;;;26.02;13.43;;;;;;;;;;5088873;28;20036;-73
2023/07/27 05:20:57;;;;;;;26.27;13.32;;;;;;;;;;5089145;28;20051;-77
2023/07/27 05:23:23;;;;;;;27.30;13.63;;;;;;;;;;5090209;28;20024;-73
2023/07/27 05:25:49;;;;;;;27.50;14.65;;;;;;;;;;5090387;28;20008;-73
2023/07/27 05:28:17;;;;;;;23.02;13.07;;;;;;;;;;5089808;28;20032;-73
2023/07/27 05:30:43;;;;;;;26.17;13.15;;;;;;;;;;5082294;28;20020;-73
2023/07/27 05:33:15;;;;;;;22.90;12.02;;;;;;;;;;5088499;28;20021;-73
2023/07/27 05:35:41;;;;;;;27.40;14.68;;;;;;;;;;5089678;28;20108;-73
2023/07/27 05:38:07;;;;;;;24.15;14.48;;;;;;;;;;5091338;28;20016;-73
2023/07/27 05:40:36;;;;;;;23.77;13.40;;;;;;;;;;5089856;28;20028;-72
2023/07/27 05:43:04;;;;;;;29.45;14.50;;;;;;;;;;5090507;28;20032;-74
2023/07/27 05:45:31;;;;;;;28.08;14.98;;;;;;;;;;5090649;28;20017;-73
2023/07/27 05:47:57;;;;;;;24.42;14.00;;;;;;;;;;5090744;28;20188;-73
2023/07/27 05:50:23;;;;;;;33.50;14.82;;;;;;;;;;5090213;28;20038;-73
2023/07/27 05:52:51;;;;;;;33.92;14.63;;;;;;;;;;5089695;28;20035;-73
2023/07/27 05:55:18;;;;;;;28.98;14.05;;;;;;;;;;5090976;28;20066;-74
2023/07/27 05:57:43;;;;;;;24.88;13.13;;;;;;;;;;5090128;28;20021;-73
2023/07/27 06:00:10;;;;;;;22.73;13.43;;;;;;;;;;5084398;28;20032;-73
2023/07/27 06:02:36;;;;;;;22.98;13.63;;;;;;;;;;5090286;28;20100;-74
2023/07/27 06:05:02;;;;;;;26.88;14.68;;;;;;;;;;5088859;28;20016;-75
2023/07/27 06:07:31;;;;;;;29.33;14.55;;;;;;;;;;5090115;28;20040;-74
2023/07/27 06:09:57;;;;;;;26.60;13.27;;;;;;;;;;5090329;28;20673;-73
2023/07/27 06:12:24;;;;;;;32.58;15.45;;;;;;;;;;5086210;28;20217;-73
2023/07/27 06:14:51;;;;;;;28.73;15.40;;;;;;;;;;5089928;28;20028;-74
2023/07/27 06:17:17;;;;;;;39.13;15.60;;;;;;;;;;5090414;28;20028;-73
2023/07/27 06:19:43;;;;;;;26.52;13.98;;;;;;;;;;5087377;28;20084;-73
2023/07/27 06:22:19;;;;;;;30.98;15.35;;;;;;;;;;5088463;28;20028;-73
2023/07/27 06:24:45;;;;;;;30.98;15.02;;;;;;;;;;5089385;28;20024;-74
2023/07/27 06:27:11;;;;;;;24.75;12.77;;;;;;;;;;5089176;28;20055;-73
2023/07/27 06:29:41;;;;;;;28.40;13.90;;;;;;;;;;5089277;28;20004;-74
2023/07/27 06:32:08;;;;;;;29.27;15.23;;;;;;;;;;5083080;28;20012;-74
2023/07/27 06:34:33;;;;;;;28.33;14.27;;;;;;;;;;5089128;28;20012;-73
2023/07/27 06:36:59;;;;;;;22.08;11.82;;;;;;;;;;5085412;28;20056;-73
2023/07/27 06:39:25;;;;;;;22.00;11.52;;;;;;;;;;5088337;28;20024;-74
2023/07/27 06:41:51;;;;;;;25.38;11.05;;;;;;;;;;5082361;28;20127;-73
2023/07/27 06:44:17;;;;;;;22.80;11.38;;;;;;;;;;5089418;28;20025;-74
2023/07/27 06:46:43;;;;;;;20.25;11.00;;;;;;;;;;5089031;28;20072;-73
2023/07/27 06:49:12;;;;;;;23.55;10.65;;;;;;;;;;5083396;28;20013;-73
2023/07/27 06:51:43;;;;;;;17.92;10.20;;;;;;;;;;5094482;28;20013;-73
2023/07/27 06:54:09;;;;;;;18.55;10.38;;;;;;;;;;5092795;28;20021;-73
2023/07/27 06:56:35;;;;;;;20.88;10.32;;;;;;;;;;5087748;28;20024;-73
2023/07/27 06:59:01;;;;;;;19.95;10.07;;;;;;;;;;5087037;28;20047;-74
2023/07/27 07:01:27;;;;;;;22.75;10.90;;;;;;;;;;5092408;28;20145;-73
2023/07/27 07:03:53;;;;;;;18.58;11.32;;;;;;;;;;5087684;28;20036;-73
2023/07/27 07:06:19;;;;;;;25.10;11.68;;;;;;;;;;5092790;28;20048;-73
2023/07/27 07:08:45;;;;;;;17.70;10.05;;;;;;;;;;5090681;28;20040;-74
2023/07/27 07:11:11;;;;;;;20.92;11.05;;;;;;;;;;5093447;28;20029;-73
2023/07/27 07:13:37;;;;;;;15.48;9.38;;;;;;;;;;5092539;28;20024;-73
2023/07/27 07:16:03;;;;;;;18.25;10.20;;;;;;;;;;5092142;28;20047;-73
2023/07/27 07:18:31;;;;;;;15.00;9.43;;;;;;;;;;5084767;28;20032;-73
2023/07/27 07:20:57;;;;;;;15.10;8.90;;;;;;;;;;5091943;28;20021;-73
2023/07/27 07:23:23;;;;;;;19.35;9.68;;;;;;;;;;5093073;28;20028;-73
2023/07/27 07:25:49;;;;;;;18.17;8.45;;;;;;;;;;5109085;28;20034;-73
2023/07/27 07:28:15;;;;;;;21.55;9.27;;;;;;;;;;5091358;28;20056;-73
2023/07/27 07:30:41;;;;;;;18.58;9.23;;;;;;;;;;5095598;28;20033;-73
2023/07/27 07:33:10;;;;;;;13.90;8.52;;;;;;;;;;5091528;28;20017;-73
2023/07/27 07:35:38;;;;;;;17.90;8.55;;;;;;;;;;5093090;28;20032;-73
2023/07/27 07:38:05;;;;;;;16.17;8.75;;;;;;;;;;5084581;28;20067;-73
2023/07/27 07:40:31;;;;;;;16.27;8.77;;;;;;;;;;5084658;28;20029;-73
2023/07/27 07:42:57;;;;;;;15.77;8.77;;;;;;;;;;5091124;28;20037;-74
2023/07/27 07:45:25;;;;;;;22.02;10.40;;;;;;;;;;5091328;28;20140;-73
2023/07/27 07:47:51;;;;;;;19.35;9.48;;;;;;;;;;5089937;28;20058;-73
2023/07/27 07:50:17;;;;;;;17.05;7.13;;;;;;;;;;5089350;28;20463;-73
2023/07/27 07:52:44;;;;;;;14.23;7.90;;;;;;;;;;5095985;28;20191;-73
2023/07/27 07:55:10;;;;;;;8.90;6.53;;;;;;;;;;5094475;28;20016;-73
2023/07/27 07:57:36;;;;;;;12.93;7.88;;;;;;;;;;5107692;28;20044;-73
2023/07/27 08:00:03;;;;;;;11.40;6.90;;;;;;;;;;5106348;28;20030;-73
2023/07/27 08:02:31;;;;;;;13.18;7.57;;;;;;;;;;5092106;28;20438;-73
2023/07/27 08:04:57;;;;;;;14.13;7.03;;;;;;;;;;5090847;28;20028;-73
2023/07/27 08:07:23;;;;;;;11.52;7.43;;;;;;;;;;5084003;28;20035;-74
2023/07/27 08:09:49;;;;;;;8.85;5.85;;;;;;;;;;5091438;28;20033;-73
2023/07/27 08:12:18;;;;;;;9.15;5.95;;;;;;;;;;5091820;28;20056;-73
2023/07/27 08:14:46;;;;;;;9.05;5.60;;;;;;;;;;5090495;28;20036;-74
2023/07/27 08:17:12;;;;;;;18.95;6.88;;;;;;;;;;5084710;28;20021;-73
2023/07/27 08:19:40;;;;;;;8.30;5.85;;;;;;;;;;5091006;28;20032;-73
2023/07/27 08:22:06;;;;;;;10.75;5.65;;;;;;;;;;5092065;28;20024;-73
2023/07/27 08:24:32;;;;;;;9.40;5.35;;;;;;;;;;5089733;28;20032;-73
2023/07/27 08:26:59;;;;;;;8.52;5.82;;;;;;;;;;5090288;28;20112;-73
2023/07/27 08:29:25;;;;;;;13.50;5.75;;;;;;;;;;5092129;28;20017;-73
2023/07/27 08:31:51;;;;;;;8.10;5.15;;;;;;;;;;5090965;28;20040;-73
2023/07/27 08:34:18;;;;;;;8.73;5.07;;;;;;;;;;5090921;28;20039;-73
2023/07/27 08:36:47;;;;;;;7.88;4.75;;;;;;;;;;5088766;28;20032;-73
2023/07/27 08:39:13;;;;;;;11.43;5.20;;;;;;;;;;5095153;28;20024;-73
2023/07/27 08:41:39;;;;;;;9.82;5.55;;;;;;;;;;5089875;28;20031;-73
2023/07/27 08:44:06;;;;;;;8.82;5.05;;;;;;;;;;5089272;28;20088;-73
2023/07/27 08:46:33;;;;;;;12.18;5.82;;;;;;;;;;5107196;28;20076;-73
2023/07/27 08:48:59;;;;;;;9.25;5.25;;;;;;;;;;5091130;28;20038;-73
2023/07/27 08:51:25;;;;;;;10.80;5.25;;;;;;;;;;5091040;28;20021;-73
2023/07/27 08:53:51;;;;;;;9.52;4.53;;;;;;;;;;5089705;28;20036;-73
2023/07/27 08:56:19;;;;;;;11.60;6.10;;;;;;;;;;5088652;28;20020;-73
2023/07/27 08:58:48;;;;;;;8.23;5.40;;;;;;;;;;5107184;28;20016;-73
2023/07/27 09:01:15;;;;;;;10.60;5.60;;;;;;;;;;5090657;28;20032;-73
2023/07/27 09:03:44;;;;;;;11.85;5.38;;;;;;;;;;5091838;28;20047;-74
2023/07/27 09:06:10;;;;;;;7.18;4.57;;;;;;;;;;5090839;28;20021;-73
2023/07/27 09:08:36;;;;;;;10.57;5.57;;;;;;;;;;5085807;28;20033;-74
2023/07/27 09:11:09;;;;;;;10.82;5.60;;;;;;;;;;5090038;28;20054;-74
2023/07/27 09:13:35;;;;;;;8.02;5.40;;;;;;;;;;5091582;28;20093;-73
2023/07/27 09:16:02;;;;;;;7.10;5.03;;;;;;;;;;5084155;28;20036;-73
2023/07/27 09:18:28;;;;;;;8.82;5.65;;;;;;;;;;5090743;28;20043;-73
2023/07/27 09:20:56;;;;;;;7.20;4.82;;;;;;;;;;5090319;28;20036;-73
2023/07/27 09:23:22;;;;;;;8.98;5.20;;;;;;;;;;5091161;28;20013;-73
2023/07/27 09:25:57;;;;;;;8.93;4.93;;;;;;;;;;5091909;28;20070;-73
2023/07/27 09:28:24;;;;;;;11.50;5.32;;;;;;;;;;5084294;28;20036;-73
2023/07/27 09:30:50;;;;;;;9.02;5.35;;;;;;;;;;5091598;28;20020;-74
2023/07/27 09:33:21;;;;;;;9.68;5.60;;;;;;;;;;5084997;28;20039;-73
2023/07/27 09:35:49;;;;;;;7.38;5.50;;;;;;;;;;5090543;28;20032;-73
2023/07/27 09:38:17;;;;;;;9.43;5.57;;;;;;;;;;5091065;28;20058;-74
2023/07/27 09:40:43;;;;;;;8.25;5.25;;;;;;;;;;5096176;28;20016;-73
2023/07/27 09:43:11;;;;;;;9.25;5.45;;;;;;;;;;5092101;28;20032;-74
2023/07/27 09:45:38;;;;;;;10.25;5.68;;;;;;;;;;5090534;28;20032;-74
2023/07/27 09:48:04;;;;;;;12.57;5.53;;;;;;;;;;5089744;28;20506;-73
2023/07/27 09:50:34;;;;;;;11.55;5.85;;;;;;;;;;5091728;28;20248;-73
2023/07/27 09:53:03;;;;;;;7.20;4.95;;;;;;;;;;5090988;28;20020;-74
2023/07/27 09:55:32;;;;;;;9.27;5.07;;;;;;;;;;5091138;28;20047;-74
2023/07/27 09:58:01;;;;;;;12.80;5.50;;;;;;;;;;5108407;28;20026;-74
2023/07/27 10:00:27;;;;;;;9.95;5.15;;;;;;;;;;5090388;28;20021;-73
2023/07/27 10:02:53;;;;;;;8.18;5.30;;;;;;;;;;5090373;28;20028;-74
2023/07/27 10:05:22;;;;;;;9.23;4.68;;;;;;;;;;5091678;28;20093;-74
2023/07/27 10:07:50;;;;;;;8.63;5.20;;;;;;;;;;5095633;28;20032;-74
2023/07/27 10:10:28;;;;;;;11.93;5.75;;;;;;;;;;5091484;28;20025;-74
2023/07/27 10:12:58;;;;;;;9.48;5.10;;;;;;;;;;5086041;28;20028;-74
2023/07/27 10:15:28;;;;;;;9.98;4.95;;;;;;;;;;5090932;28;20045;-74
2023/07/27 10:17:58;;;;;;;6.97;4.93;;;;;;;;;;5091891;28;20241;-73
2023/07/27 10:20:29;;;;;;;8.63;4.82;;;;;;;;;;5083332;28;20013;-74
2023/07/27 10:23:10;;;;;;;10.48;5.50;;;;;;;;;;5094355;28;20033;-74
2023/07/27 10:25:57;;;;;;;7.72;4.32;;;;;;;;;;5111482;28;20088;-73
2023/07/27 10:28:44;;;;;;;5.05;3.80;;;;;;;;;;5094788;28;20040;-73
2023/07/27 10:31:29;;;;;;;5.63;3.55;;;;;;;;;;5094459;28;20122;-73
2023/07/27 10:34:14;;;;;;;8.40;4.00;;;;;;;;;;5095096;28;20040;-74
2023/07/27 10:36:57;;;;;;;6.65;4.07;;;;;;;;;;5094717;28;20035;-74
2023/07/27 10:39:34;;;;;;;4.32;3.10;;;;;;;;;;5095011;28;20115;-73
2023/07/27 10:42:12;;;;;;;4.50;2.72;;;;;;;;;;5095313;28;20063;-74
2023/07/27 10:44:42;;;;;;;4.43;1.88;;;;;;;;;;5106830;28;20030;-73
2023/07/27 10:47:32;;;;;;;3.97;2.15;;;;;;;;;;5093517;28;20092;-74
2023/07/27 10:49:59;;;;;;;4.75;2.10;;;;;;;;;;5105887;28;20024;-74
2023/07/27 10:52:32;;;;;;;4.60;1.88;;;;;;;;;;5094202;28;20043;-74
2023/07/27 10:54:59;;;;;;;3.22;2.08;;;;;;;;;;5095848;28;20020;-74
2023/07/27 10:57:26;;;;;;;5.70;2.35;;;;;;;;;;5093976;28;20048;-77
2023/07/27 10:59:54;;;;;;;3.28;1.67;;;;;;;;;;5091806;28;20044;-74
2023/07/27 11:02:36;;;;;;;9.63;1.92;;;;;;;;;;5077876;28;20024;-80
2023/07/27 11:05:06;;;;;;;2.33;1.70;;;;;;;;;;5076970;28;20512;-81
2023/07/27 11:07:33;;;;;;;2.47;0.98;;;;;;;;;;5082420;28;20040;-81
2023/07/27 11:10:04;;;;;;;2.22;1.75;;;;;;;;;;5087774;28;20040;-83
2023/07/27 11:12:32;;;;;;;1.55;1.10;;;;;;;;;;5072324;28;20093;-84
2023/07/27 11:15:25;;;;;;;1.23;1.13;;;;;;;;;;5077899;28;20033;-79
2023/07/27 11:17:51;;;;;;;2.33;0.90;;;;;;;;;;5090291;28;20036;-74
2023/07/27 11:20:20;;;;;;;3.83;0.88;;;;;;;;;;5084015;28;20032;-79
2023/07/27 11:22:49;;;;;;;1.92;1.02;;;;;;;;;;5076964;28;20092;-78
2023/07/27 11:25:18;;;;;;;2.30;1.40;;;;;;;;;;5076718;28;20036;-80
2023/07/27 11:27:47;;;;;;;2.17;1.30;;;;;;;;;;5084637;28;20040;-76
2023/07/27 11:30:17;;;;;;;4.38;1.45;;;;;;;;;;5084067;28;20033;-81
2023/07/27 11:32:56;;;;;;;1.63;1.15;;;;;;;;;;5077637;28;20029;-75
2023/07/27 11:35:22;;;;;;;1.27;1.15;;;;;;;;;;5081210;28;20020;-82
2023/07/27 11:37:48;;;;;;;1.50;1.27;;;;;;;;;;5073781;28;20032;-80
2023/07/27 11:40:18;;;;;;;2.38;1.33;;;;;;;;;;5068838;28;20113;-83
2023/07/27 11:42:44;;;;;;;3.05;1.60;;;;;;;;;;5063723;28;20048;-86
2023/07/27 11:45:11;;;;;;;2.58;1.08;;;;;;;;;;5060174;28;20040;-87
2023/07/27 11:47:38;;;;;;;3.78;0.80;;;;;;;;;;5065491;28;20041;-84
2023/07/27 11:50:06;;;;;;;2.88;1.15;;;;;;;;;;5065961;28;20025;-83
2023/07/27 11:52:33;;;;;;;2.78;0.90;;;;;;;;;;5068274;28;20024;-84
2023/07/27 11:55:03;;;;;;;4.85;1.23;;;;;;;;;;5070706;28;20036;-88
2023/07/27 11:57:30;;;;;;;0.98;0.88;;;;;;;;;;5060368;28;20040;-86
2023/07/27 12:00:06;;;;;;;5.32;1.33;;;;;;;;;;5059727;28;20055;-87
2023/07/27 12:02:34;;;;;;;2.25;0.80;;;;;;;;;;5065890;28;20338;-81
2023/07/27 12:05:03;;;;;;;0.80;0.80;;;;;;;;;;5068182;28;20129;-88
2023/07/27 12:07:34;;;;;;;0.82;0.75;;;;;;;;;;5067830;28;20063;-81
2023/07/27 12:10:01;;;;;;;2.35;0.90;;;;;;;;;;5068574;28;20037;-86
2023/07/27 12:12:27;;;;;;;1.10;0.65;;;;;;;;;;5067677;28;20028;-84
2023/07/27 12:14:58;;;;;;;1.77;0.80;;;;;;;;;;5075295;28;20040;-79
2023/07/27 12:17:24;;;;;;;1.23;0.90;;;;;;;;;;5071876;28;20028;-81
2023/07/27 12:19:50;;;;;;;1.80;0.80;;;;;;;;;;5068917;28;20032;-83
2023/07/27 12:22:16;;;;;;;1.50;1.10;;;;;;;;;;5069584;28;20929;-83
2023/07/27 12:24:49;;;;;;;2.83;1.00;;;;;;;;;;5068095;28;20032;-85
2023/07/27 12:27:14;;;;;;;1.58;1.20;;;;;;;;;;5070323;28;20128;-75
2023/07/27 12:29:43;;;;;;;4.65;1.40;;;;;;;;;;5062905;28;20109;-84
2023/07/27 12:32:09;;;;;;;1.33;0.90;;;;;;;;;;5071521;28;20115;-75
2023/07/27 12:34:35;;;;;;;5.65;1.30;;;;;;;;;;5076654;28;20063;-76
2023/07/27 12:37:01;;;;;;;1.42;1.27;;;;;;;;;;5081076;28;20056;-80
2023/07/27 12:39:29;;;;;;;1.83;1.20;;;;;;;;;;5092150;28;20138;-75
2023/07/27 12:41:55;;;;;;;4.78;1.42;;;;;;;;;;5085389;28;20032;-80
2023/07/27 12:44:24;;;;;;;7.22;2.28;;;;;;;;;;5086282;28;20038;-76
2023/07/27 12:46:50;;;;;;;1.20;1.10;;;;;;;;;;5080407;28;20021;-77
2023/07/27 12:49:16;;;;;;;1.52;1.40;;;;;;;;;;5084700;28;20039;-75
2023/07/27 12:51:42;;;;;;;1.63;1.08;;;;;;;;;;5092394;28;20033;-73
2023/07/27 12:54:08;;;;;;;1.50;1.00;;;;;;;;;;5092280;28;20106;-74
2023/07/27 12:56:34;;;;;;;2.05;1.20;;;;;;;;;;5096797;28;20017;-73
2023/07/27 12:59:00;;;;;;;1.55;1.08;;;;;;;;;;5092019;28;20034;-73
2023/07/27 13:01:28;;;;;;;0.95;0.85;;;;;;;;;;5091486;28;20008;-75
2023/07/27 13:03:54;;;;;;;1.33;1.05;;;;;;;;;;5092329;28;20042;-74
2023/07/27 13:06:22;;;;;;;1.63;1.20;;;;;;;;;;5091935;28;20035;-74
2023/07/27 13:08:51;;;;;;;1.30;1.15;;;;;;;;;;5092079;28;20044;-74
2023/07/27 13:11:17;;;;;;;1.40;1.23;;;;;;;;;;5091605;28;20012;-74
2023/07/27 13:13:43;;;;;;;4.32;1.33;;;;;;;;;;5086820;28;20028;-75
2023/07/27 13:16:09;;;;;;;2.05;1.25;;;;;;;;;;5077256;28;20033;-77
2023/07/27 13:18:38;;;;;;;1.45;1.27;;;;;;;;;;5073993;28;20024;-84
2023/07/27 13:21:06;;;;;;;1.00;0.90;;;;;;;;;;5076398;28;20039;-82
2023/07/27 13:23:32;;;;;;;1.20;0.63;;;;;;;;;;5074335;28;20059;-81
2023/07/27 13:25:58;;;;;;;2.55;1.20;;;;;;;;;;5064710;28;20047;-84
2023/07/27 13:28:24;;;;;;;2.22;0.55;;;;;;;;;;5067768;28;21644;-89
2023/07/27 13:30:50;;;;;;;1.30;0.47;;;;;;;;;;5067575;28;20032;-77
2023/07/27 13:33:19;;;;;;;1.35;0.70;;;;;;;;;;5068912;28;20036;-85
2023/07/27 13:35:45;;;;;;;2.53;0.60;;;;;;;;;;5060435;28;20476;-89
2023/07/27 13:38:11;;;;;;;4.43;0.60;;;;;;;;;;5065630;28;20066;-84
2023/07/27 13:40:37;;;;;;;0.77;0.35;;;;;;;;;;5070098;28;21620;-85
2023/07/27 13:43:05;;;;;;;4.57;0.40;;;;;;;;;;5065121;28;20029;-81
2023/07/27 13:45:31;;;;;;;0.50;0.30;;;;;;;;;;5076200;28;20036;-75
2023/07/27 13:47:57;;;;;;;0.40;0.30;;;;;;;;;;5073214;28;20044;-84
2023/07/27 13:50:26;;;;;;;1.52;0.60;;;;;;;;;;5066612;28;20082;-84
2023/07/27 13:52:52;;;;;;;0.68;0.32;;;;;;;;;;5059192;28;20031;-87
2023/07/27 13:55:17;;;;;;;1.10;0.60;;;;;;;;;;5067052;28;20025;-80
2023/07/27 13:57:43;;;;;;;0.32;0.20;;;;;;;;;;5068907;28;20109;-79
2023/07/27 14:00:10;;;;;;;1.67;0.47;;;;;;;;;;5087594;28;20044;-75
2023/07/27 14:02:37;;;;;;;1.27;0.50;;;;;;;;;;5078501;28;20021;-75
2023/07/27 14:05:03;;;;;;;2.47;1.45;;;;;;;;;;5088007;28;20028;-79
2023/07/27 14:07:29;;;;;;;0.68;0.52;;;;;;;;;;5084592;28;20048;-78
2023/07/27 14:09:57;;;;;;;1.55;0.90;;;;;;;;;;5082955;28;20054;-75
2023/07/27 14:12:25;;;;;;;0.60;0.60;;;;;;;;;;5072833;28;20041;-87
2023/07/27 14:14:51;;;;;;;1.25;0.68;;;;;;;;;;5077638;28;20043;-79
2023/07/27 14:17:19;;;;;;;1.60;0.88;;;;;;;;;;5072706;28;20037;-86
2023/07/27 14:19:45;;;;;;;0.60;0.47;;;;;;;;;;5062652;28;20058;-81
2023/07/27 14:22:11;;;;;;;2.05;0.73;;;;;;;;;;5059631;28;20037;-89
2023/07/27 14:24:37;;;;;;;0.77;0.77;;;;;;;;;;5062654;28;20059;-82
2023/07/27 14:27:03;;;;;;;2.88;0.50;;;;;;;;;;5064435;28;20028;-84
2023/07/27 14:29:32;;;;;;;3.10;0.63;;;;;;;;;;5066049;28;20150;-86
2023/07/27 14:31:58;;;;;;;3.92;1.13;;;;;;;;;;5059877;28;20047;-89
2023/07/27 14:34:24;;;;;;;2.50;0.95;;;;;;;;;;5059494;28;20033;-86
2023/07/27 14:36:52;;;;;;;1.90;0.50;;;;;;;;;;5058371;28;20024;-84
2023/07/27 14:39:18;;;;;;;0.88;0.52;;;;;;;;;;5065039;28;20116;-88